SPSO

Capitán FAP Renán Elías Olivera International Airport

Pisco, Peru
SPSO 191100Z 1912/2012 VRB02KT 8000 SCT014 TX27/1919Z TN18/2010Z TEMPO 1912/1913 4000 BR BKN012 FM191400 30005KT 8000 SCT020 BECMG 1918/1920 22010KT CAVOK FM200400 21005KT 8000 NSC
Issued Valid From Valid To
Jan-19 @ 11:00 UTC
(6 hours ago)
Jan-19 @ 12:00 UTC
(5 hours ago)
Jan-20 @ 12:00 UTC
(in 19 hours)
Expired Click to View Jan-19 @ 12:00 to Jan-19 @ 14:00
SPSO 191100Z 1912/2012 VRB02KT 8000 SCT014 TX27/1919Z TN18/2010Z
Wind Visibility Clouds
Variable at 2 knots 7,998 meters
  • Scattered at 1,400' AGL
Expired Click to View Jan-19 @ 12:00 to Jan-19 @ 13:00
TEMPO 1912/1913 4000 BR BKN012
Visibility Clouds Conditions
4,007 meters
  • Broken at 1,200' AGL
  • Mist
From Jan-19 @ 14:00 to Jan-19 @ 18:00
FM191400 30005KT 8000 SCT020
Wind Visibility Clouds
300° at 5 knots 7,998 meters
  • Scattered at 2,000' AGL
Becoming Jan-19 @ 18:00 to Jan-20 @ 04:00
BECMG 1918/1920 22010KT CAVOK
Wind Visibility Clouds Conditions
220° at 10 knots 10,000+ meters
  • No significant clouds
From Jan-20 @ 04:00 to Jan-20 @ 12:00
FM200400 21005KT 8000 NSC
Wind Visibility Clouds
210° at 5 knots 7,998 meters
  • No significant clouds
SPSO 191100Z 1912/2012 VRB02KT 8000 SCT014 TX27/1919Z TN18/2010Z TEMPO 1912/1913 4000 BR BKN012 FM191400 30005KT 8000 SCT020 BECMG 1918/1920 22010KT CAVOK FM200400 21005KT 8000 NSC
Issued Jan-19 @ 11:00 UTC
(6 hours ago)
Valid From Jan-19 @ 12:00 UTC
(5 hours ago)
Valid To Jan-20 @ 12:00 UTC
(in 19 hours)
Jan-19 @ 12:00 - Jan-19 @ 14:00
Wind Visibility
Variable at 2 knots 7,998 meters
Clouds
  • Scattered at 1,400' AGL
Jan-19 @ 12:00 - Jan-19 @ 13:00
Clouds
  • Broken at 1,200' AGL
Conditions
  • Mist
From Jan-19 @ 14:00 - Jan-19 @ 18:00
Wind Visibility
300° at 5 knots 7,998 meters
Clouds
  • Scattered at 2,000' AGL
Becoming Jan-19 @ 18:00 - Jan-20 @ 04:00
Wind Visibility
220° at 10 knots 10,000+ meters
Clouds
  • No significant clouds
Conditions
From Jan-20 @ 04:00 - Jan-20 @ 12:00
Wind Visibility
210° at 5 knots 7,998 meters
Clouds
  • No significant clouds